Briefing drone pour Beauzac

Rechercher une autre localisation

Conditions de vol :


Nous sommes le : Mercredi 23 juin 2021
Il est 02:35 UTC (04:35 LT)

Lever de soleil : 03:30 UTC (05:30 LT)
Coucher de soleil : 20:01 UTC (22:01 LT)

Météo

L'essentiel des conditions de vol

VIGILANCE MÉTÉO FRANCE - Haute-Loire (43)
Vigilance Jaune : Orages
CARTE TEMSI
CARTES DES FRONTS
METAR de LFMH
LFMH 230230Z AUTO 15001KT 1400 R18/1100U BR NSC 11/10 Q1017

Date d'émission: 23/06/2021
Heure d'émission: 02:30 UTC
Vent: 150° pour 1 KT (2 km/h)
Visibilité horizontale: 1400/R18/1100U m
Plafond : Pas de nuages significatifs (NSC)
Température: 11 °C
Point de rosée: 10 °C
Humidité: 94%
Pression (QNH): 1017 hPa
Conditions: Brume
TAF de LFMH
LFMH 161901Z 1619/1712 CNL

Conditions prévues :

Heure d'émission : Bulletin éffectué le 16 à 19:00 UTC
Prévision : Valide du 16 a 19:00 UTC au 17 a 12:00 UTC
Nuages : à 0ft (0 m)
WEBCAM POUR BEAUZAC

Réglementation

Voler en sécurité

CARTES AERONAUTIQUE 1/500.000
CARTES VAC (LFMH)
SUP AIP




Chargement des AIP...
NOTAM (BEAUZAC + Terrain à proximité / FIR )




Chargement des NOTAMS...
CONTACT PREFECTURE 43


Avertissement : Les données mises à disposition sont indicatives. Oxygène Drone ne pourra être tenu responsable de dégâts causés aux biens et aux personnes.